Time;durP1;ratioP1;P1;durP2;ratioP2;P2;SDS_P1;SDS_P2;PMS_P1;PMS_P2;Temp;Humidity;BMP_temperature;BMP_pressure;BME280_temperature;BME280_humidity;BME280_pressure;Samples;Min_cycle;Max_cycle;Signal;HPM_P1;HPM_P2
2022/10/02 00:02:20;;;;;;;15.82;3.38;;;;;;;;;;4994169;28;20109;-72
2022/10/02 00:04:58;;;;;;;9.32;2.50;;;;;;;;;;4994579;28;20022;-72
2022/10/02 00:07:42;;;;;;;11.80;3.78;;;;;;;;;;4993577;28;20472;-73
2022/10/02 00:10:21;;;;;;;12.57;3.55;;;;;;;;;;4994270;28;20053;-72
2022/10/02 00:12:51;;;;;;;9.77;2.77;;;;;;;;;;4994368;28;20023;-73
2022/10/02 00:15:25;;;;;;;13.45;2.80;;;;;;;;;;4994464;28;20476;-73
2022/10/02 00:17:55;;;;;;;10.25;2.42;;;;;;;;;;4993953;28;20057;-73
2022/10/02 00:20:26;;;;;;;12.15;2.72;;;;;;;;;;4994147;28;20077;-73
2022/10/02 00:23:25;;;;;;;10.98;2.97;;;;;;;;;;4994114;28;20520;-73
2022/10/02 00:26:01;;;;;;;11.30;3.20;;;;;;;;;;4989228;28;20038;-73
2022/10/02 00:28:43;;;;;;;11.82;2.78;;;;;;;;;;4994113;28;20080;-69
2022/10/02 00:31:30;;;;;;;15.35;2.90;;;;;;;;;;4992623;28;20030;-72
2022/10/02 00:34:20;;;;;;;15.10;3.00;;;;;;;;;;4993965;28;20101;-72
2022/10/02 00:36:55;;;;;;;;;;;;;;;;;;4994060;28;20085;-72
2022/10/02 00:39:35;;;;;;;15.48;2.88;;;;;;;;;;4993941;28;19914;-72
2022/10/02 00:42:25;;;;;;;9.80;2.55;;;;;;;;;;4993695;28;20077;-73
2022/10/02 00:45:15;;;;;;;10.68;2.92;;;;;;;;;;4993313;28;20034;-73
2022/10/02 00:48:11;;;;;;;9.63;3.40;;;;;;;;;;4993800;28;20066;-73
2022/10/02 00:50:44;;;;;;;5.97;2.60;;;;;;;;;;4993093;28;20027;-73
2022/10/02 00:53:36;;;;;;;8.10;2.58;;;;;;;;;;4993691;28;20022;-73
2022/10/02 00:56:13;;;;;;;7.70;2.50;;;;;;;;;;4993208;28;20114;-71
2022/10/02 00:58:50;;;;;;;7.95;2.72;;;;;;;;;;4993669;28;20038;-73
2022/10/02 01:01:29;;;;;;;8.45;2.58;;;;;;;;;;4993205;28;20026;-73
2022/10/02 01:03:56;;;;;;;10.50;2.60;;;;;;;;;;4993471;28;20041;-73
2022/10/02 01:06:24;;;;;;;15.65;2.50;;;;;;;;;;4993393;28;20480;-73
2022/10/02 01:08:54;;;;;;;8.32;2.50;;;;;;;;;;4992129;28;20074;-72
2022/10/02 01:11:22;;;;;;;13.13;2.30;;;;;;;;;;4994092;28;20395;-73
2022/10/02 01:13:47;;;;;;;12.35;2.28;;;;;;;;;;5012829;28;20492;-73
2022/10/02 01:16:13;;;;;;;8.02;2.13;;;;;;;;;;5012772;28;20033;-73
2022/10/02 01:18:40;;;;;;;7.25;2.05;;;;;;;;;;5012474;28;20025;-72
2022/10/02 01:21:31;;;;;;;5.70;2.35;;;;;;;;;;5007251;28;20066;-72
2022/10/02 01:24:13;;;;;;;6.38;2.10;;;;;;;;;;4993056;28;20380;-73
2022/10/02 01:26:39;;;;;;;9.70;2.03;;;;;;;;;;4993223;28;20026;-72
2022/10/02 01:29:04;;;;;;;8.13;2.05;;;;;;;;;;4992877;28;20077;-73
2022/10/02 01:31:31;;;;;;;8.82;2.10;;;;;;;;;;4993085;28;20030;-73
2022/10/02 01:33:57;;;;;;;8.07;2.30;;;;;;;;;;4992626;28;20031;-72
2022/10/02 01:36:23;;;;;;;9.68;2.35;;;;;;;;;;4992913;28;20400;-72
2022/10/02 01:38:50;;;;;;;13.55;2.50;;;;;;;;;;4992839;28;20034;-72
2022/10/02 01:41:15;;;;;;;6.38;1.90;;;;;;;;;;4992727;28;20106;-73
2022/10/02 01:43:55;;;;;;;9.95;2.35;;;;;;;;;;4992998;28;20057;-73
2022/10/02 01:46:31;;;;;;;8.18;2.10;;;;;;;;;;4993010;28;20479;-73
2022/10/02 01:49:21;;;;;;;14.88;2.35;;;;;;;;;;4992876;28;20088;-72
2022/10/02 01:51:59;;;;;;;12.10;2.13;;;;;;;;;;4992988;28;20026;-71
2022/10/02 01:54:52;;;;;;;9.07;2.40;;;;;;;;;;4992835;28;20030;-72
2022/10/02 01:57:40;;;;;;;7.13;2.08;;;;;;;;;;5005191;28;20026;-72
2022/10/02 02:00:11;;;;;;;11.98;2.50;;;;;;;;;;5011079;28;20030;-72
2022/10/02 02:02:39;;;;;;;10.35;2.05;;;;;;;;;;5012544;28;20018;-72
2022/10/02 02:05:22;;;;;;;6.35;1.95;;;;;;;;;;5012549;28;20430;-72
2022/10/02 02:07:59;;;;;;;7.43;1.98;;;;;;;;;;5011193;28;20026;-72
2022/10/02 02:10:44;;;;;;;9.75;2.35;;;;;;;;;;5012334;28;20475;-73
2022/10/02 02:13:29;;;;;;;9.88;2.17;;;;;;;;;;5012204;28;20037;-72
2022/10/02 02:16:04;;;;;;;5.80;2.13;;;;;;;;;;5012367;28;20022;-72
2022/10/02 02:18:34;;;;;;;8.55;2.03;;;;;;;;;;5010777;28;20052;-71
2022/10/02 02:21:08;;;;;;;;;;;;;;;;;;5007797;28;20030;-72
2022/10/02 02:23:37;;;;;;;13.05;2.03;;;;;;;;;;4992629;28;19918;-73
2022/10/02 02:26:11;;;;;;;6.93;2.13;;;;;;;;;;4991882;28;20046;-72
2022/10/02 02:28:42;;;;;;;9.25;2.58;;;;;;;;;;4992473;28;20053;-72
2022/10/02 02:31:11;;;;;;;4.63;2.00;;;;;;;;;;4994090;28;20037;-73
2022/10/02 02:33:45;;;;;;;6.00;1.77;;;;;;;;;;5011850;28;20018;-73
2022/10/02 02:36:13;;;;;;;10.95;2.35;;;;;;;;;;5015222;28;20036;-72
2022/10/02 02:38:48;;;;;;;8.18;2.38;;;;;;;;;;5015677;28;20026;-73
2022/10/02 02:41:19;;;;;;;11.27;2.05;;;;;;;;;;5015576;28;20026;-72
2022/10/02 02:43:53;;;;;;;7.70;2.53;;;;;;;;;;5015667;28;20018;-72
2022/10/02 02:46:28;;;;;;;11.63;2.55;;;;;;;;;;5015579;28;20053;-69
2022/10/02 02:49:01;;;;;;;10.52;2.35;;;;;;;;;;5014955;28;20041;-69
2022/10/02 02:51:32;;;;;;;7.35;2.30;;;;;;;;;;5015625;28;20108;-69
2022/10/02 02:54:24;;;;;;;6.30;1.98;;;;;;;;;;5015391;28;20057;-69
2022/10/02 02:56:52;;;;;;;18.30;2.40;;;;;;;;;;5014985;28;20072;-69
2022/10/02 02:59:19;;;;;;;10.50;2.33;;;;;;;;;;5015155;28;20142;-69
2022/10/02 03:01:45;;;;;;;9.30;2.15;;;;;;;;;;5015460;28;20084;-68
2022/10/02 03:04:12;;;;;;;13.05;2.65;;;;;;;;;;5015214;28;20427;-73
2022/10/02 03:06:41;;;;;;;7.75;2.28;;;;;;;;;;5015207;28;20506;-68
2022/10/02 03:09:16;;;;;;;10.20;2.50;;;;;;;;;;5015183;28;20045;-69
2022/10/02 03:12:04;;;;;;;5.43;2.30;;;;;;;;;;5015018;28;20022;-71
2022/10/02 03:14:49;;;;;;;9.38;2.28;;;;;;;;;;5015257;28;20113;-70
2022/10/02 03:17:35;;;;;;;9.02;2.13;;;;;;;;;;5015140;28;20456;-68
2022/10/02 03:20:25;;;;;;;10.40;2.30;;;;;;;;;;5014671;28;20107;-69
2022/10/02 03:23:05;;;;;;;4.93;2.40;;;;;;;;;;4995259;28;20117;-69
2022/10/02 03:25:52;;;;;;;7.00;2.58;;;;;;;;;;4995218;28;20034;-68
2022/10/02 03:28:38;;;;;;;8.02;2.60;;;;;;;;;;4995132;28;20032;-71
2022/10/02 03:31:04;;;;;;;7.50;2.83;;;;;;;;;;4993917;28;20018;-69
2022/10/02 03:33:34;;;;;;;10.43;3.03;;;;;;;;;;4992616;28;20101;-69
2022/10/02 03:35:59;;;;;;;12.77;3.13;;;;;;;;;;4992613;28;20107;-69
2022/10/02 03:38:26;;;;;;;9.98;2.78;;;;;;;;;;4992732;28;20055;-70
2022/10/02 03:40:56;;;;;;;7.18;2.80;;;;;;;;;;4992395;28;20362;-72
2022/10/02 03:43:25;;;;;;;8.85;2.80;;;;;;;;;;4992477;28;20019;-69
2022/10/02 03:45:50;;;;;;;7.28;2.58;;;;;;;;;;5011579;28;20025;-69
2022/10/02 03:48:16;;;;;;;9.00;2.70;;;;;;;;;;5020059;28;20034;-71
2022/10/02 03:50:42;;;;;;;11.95;3.17;;;;;;;;;;5017192;28;20052;-71
2022/10/02 03:53:19;;;;;;;9.73;3.00;;;;;;;;;;5020415;28;20379;-71
2022/10/02 03:55:51;;;;;;;11.27;3.47;;;;;;;;;;5017712;28;20108;-72
2022/10/02 03:58:17;;;;;;;10.60;3.35;;;;;;;;;;5019351;28;20022;-70
2022/10/02 04:00:55;;;;;;;9.55;3.00;;;;;;;;;;5021362;28;20083;-70
2022/10/02 04:03:27;;;;;;;11.70;3.10;;;;;;;;;;5021405;28;20120;-71
2022/10/02 04:06:21;;;;;;;9.48;2.50;;;;;;;;;;5021164;28;20439;-69
2022/10/02 04:08:53;;;;;;;7.35;2.70;;;;;;;;;;5018466;28;20033;-69
2022/10/02 04:11:32;;;;;;;8.85;2.65;;;;;;;;;;5021629;28;20140;-69
2022/10/02 04:14:08;;;;;;;20.40;8.15;;;;;;;;;;5021497;28;20049;-69
2022/10/02 04:16:51;;;;;;;13.68;3.70;;;;;;;;;;5021164;28;20108;-70
2022/10/02 04:19:22;;;;;;;7.43;3.03;;;;;;;;;;5020594;28;20132;-70
2022/10/02 04:21:58;;;;;;;12.93;3.17;;;;;;;;;;5018236;28;20538;-69
2022/10/02 04:25:04;;;;;;;9.32;3.15;;;;;;;;;;5017174;28;20108;-69
2022/10/02 04:27:39;;;;;;;5.70;2.92;;;;;;;;;;4978777;28;20066;-69
2022/10/02 04:30:13;;;;;;;9.98;3.55;;;;;;;;;;4975798;28;20510;-68
2022/10/02 04:32:39;;;;;;;10.75;3.90;;;;;;;;;;4977539;28;20538;-70
2022/10/02 04:35:34;;;;;;;10.13;3.30;;;;;;;;;;4979422;28;20035;-69
2022/10/02 04:38:15;;;;;;;12.55;3.20;;;;;;;;;;4979069;28;20492;-71
2022/10/02 04:41:12;;;;;;;7.47;3.05;;;;;;;;;;4979956;28;20030;-71
2022/10/02 04:43:57;;;;;;;10.73;3.15;;;;;;;;;;4900895;29;20041;-69
2022/10/02 04:46:41;;;;;;;10.50;3.00;;;;;;;;;;4901500;29;20084;-69
2022/10/02 04:49:06;;;;;;;10.85;3.22;;;;;;;;;;4897730;29;20119;-69
2022/10/02 04:52:01;;;;;;;10.85;3.17;;;;;;;;;;4901633;29;20193;-70
2022/10/02 04:54:49;;;;;;;12.05;3.10;;;;;;;;;;4902359;29;20629;-69
2022/10/02 04:57:38;;;;;;;8.93;2.97;;;;;;;;;;4900931;29;20044;-70
2022/10/02 05:00:17;;;;;;;9.90;3.15;;;;;;;;;;4901353;29;20040;-69
2022/10/02 05:02:48;;;;;;;7.40;2.88;;;;;;;;;;4901079;29;20032;-69
2022/10/02 05:05:55;;;;;;;14.45;2.88;;;;;;;;;;4957045;28;20031;-70
2022/10/02 05:08:45;;;;;;;7.30;2.80;;;;;;;;;;4892217;29;20585;-69
2022/10/02 05:11:29;;;;;;;9.85;2.92;;;;;;;;;;4892788;29;20028;-70
2022/10/02 05:14:00;;;;;;;15.07;3.95;;;;;;;;;;4892306;29;20502;-69
2022/10/02 05:16:50;;;;;;;10.55;2.88;;;;;;;;;;4892562;29;20036;-69
2022/10/02 05:19:38;;;;;;;10.25;3.20;;;;;;;;;;4929978;28;20050;-68
2022/10/02 05:22:36;;;;;;;12.75;3.03;;;;;;;;;;4967992;28;20070;-69
2022/10/02 05:25:10;;;;;;;7.30;3.30;;;;;;;;;;4930113;29;20407;-69
2022/10/02 05:28:12;;;;;;;7.70;2.58;;;;;;;;;;4930203;29;20418;-70
2022/10/02 05:31:08;;;;;;;9.55;2.65;;;;;;;;;;4929326;29;20047;-69
2022/10/02 05:33:41;;;;;;;11.48;2.83;;;;;;;;;;4930006;29;20031;-69
2022/10/02 05:36:24;;;;;;;16.63;3.10;;;;;;;;;;4927483;29;20111;-68
2022/10/02 05:39:01;;;;;;;9.90;2.78;;;;;;;;;;4929964;29;20490;-70
2022/10/02 05:42:05;;;;;;;11.60;3.20;;;;;;;;;;4928095;29;20540;-71
2022/10/02 05:44:38;;;;;;;12.98;3.00;;;;;;;;;;4927382;29;20039;-69
2022/10/02 05:47:12;;;;;;;11.00;3.13;;;;;;;;;;4940367;29;20038;-72
2022/10/02 05:49:50;;;;;;;10.82;2.95;;;;;;;;;;4940184;29;20066;-72
2022/10/02 05:52:30;;;;;;;11.05;2.67;;;;;;;;;;4940358;29;20039;-71
2022/10/02 05:55:02;;;;;;;11.60;2.97;;;;;;;;;;4939461;29;20032;-72
2022/10/02 05:57:50;;;;;;;11.85;4.40;;;;;;;;;;4937253;29;20282;-72
2022/10/02 06:00:23;;;;;;;10.75;2.63;;;;;;;;;;4939529;29;20119;-70
2022/10/02 06:03:00;;;;;;;9.55;2.78;;;;;;;;;;5001756;28;20034;-73
2022/10/02 06:05:36;;;;;;;15.50;3.20;;;;;;;;;;5017093;28;20029;-72
2022/10/02 06:08:05;;;;;;;8.90;2.67;;;;;;;;;;5022344;28;20105;-73
2022/10/02 06:10:37;;;;;;;8.73;2.47;;;;;;;;;;5023480;28;20033;-71
2022/10/02 06:13:14;;;;;;;12.40;2.88;;;;;;;;;;5024440;28;20013;-72
2022/10/02 06:15:50;;;;;;;9.85;2.72;;;;;;;;;;5024496;28;20022;-72
2022/10/02 06:18:21;;;;;;;13.15;3.30;;;;;;;;;;5023661;28;20026;-72
2022/10/02 06:21:00;;;;;;;11.75;2.88;;;;;;;;;;5018859;28;20472;-72
2022/10/02 06:23:54;;;;;;;9.93;2.80;;;;;;;;;;5020624;28;20045;-69
2022/10/02 06:26:25;;;;;;;11.88;3.00;;;;;;;;;;5022846;28;20124;-68
2022/10/02 06:29:01;;;;;;;12.40;3.30;;;;;;;;;;5023478;28;20037;-72
2022/10/02 06:31:26;;;;;;;10.07;2.78;;;;;;;;;;5020582;28;20036;-72
2022/10/02 06:33:52;;;;;;;9.30;2.53;;;;;;;;;;5022990;28;20021;-68
2022/10/02 06:36:54;;;;;;;11.25;2.90;;;;;;;;;;5023964;28;20045;-70
2022/10/02 06:39:26;;;;;;;6.28;2.03;;;;;;;;;;5022128;28;20418;-70
2022/10/02 06:41:57;;;;;;;8.45;2.47;;;;;;;;;;5022739;28;20192;-70
2022/10/02 06:44:31;;;;;;;7.35;2.05;;;;;;;;;;5023932;28;20108;-69
2022/10/02 06:46:59;;;;;;;9.40;2.40;;;;;;;;;;5023880;28;20537;-69
2022/10/02 06:49:40;;;;;;;6.60;2.13;;;;;;;;;;5019647;28;20034;-70
2022/10/02 06:52:08;;;;;;;;;;;;;;;;;;5020277;28;20025;-68
2022/10/02 06:54:54;;;;;;;9.98;1.70;;;;;;;;;;5022585;28;19985;-68
2022/10/02 06:58:00;;;;;;;7.40;1.80;;;;;;;;;;5023435;28;20022;-69
2022/10/02 07:00:26;;;;;;;8.15;1.80;;;;;;;;;;5017096;28;20041;-68
2022/10/02 07:03:08;;;;;;;10.73;1.98;;;;;;;;;;5022476;28;20013;-70
2022/10/02 07:06:01;;;;;;;6.80;2.08;;;;;;;;;;5021818;28;20079;-69
2022/10/02 07:08:52;;;;;;;6.63;1.58;;;;;;;;;;5021945;28;20026;-67
2022/10/02 07:11:41;;;;;;;5.53;1.63;;;;;;;;;;5022762;28;20104;-68
2022/10/02 07:14:21;;;;;;;7.40;1.77;;;;;;;;;;5022166;28;20049;-68
2022/10/02 07:16:58;;;;;;;4.97;1.50;;;;;;;;;;5019154;28;20336;-68
2022/10/02 07:20:03;;;;;;;8.10;1.70;;;;;;;;;;5018597;28;20045;-71
2022/10/02 07:22:50;;;;;;;3.83;1.40;;;;;;;;;;5019761;28;20025;-68
2022/10/02 07:25:33;;;;;;;6.90;1.60;;;;;;;;;;5022008;28;20121;-68
2022/10/02 07:28:35;;;;;;;8.45;1.70;;;;;;;;;;5022781;28;20041;-68
2022/10/02 07:31:17;;;;;;;5.82;1.73;;;;;;;;;;5022506;28;20483;-67
2022/10/02 07:34:00;;;;;;;5.43;1.65;;;;;;;;;;5022954;28;20063;-69
2022/10/02 07:36:36;;;;;;;8.40;1.52;;;;;;;;;;5018913;28;20030;-71
2022/10/02 07:39:24;;;;;;;6.47;1.40;;;;;;;;;;5020795;28;20099;-72
2022/10/02 07:42:20;;;;;;;5.07;1.70;;;;;;;;;;5021712;28;20028;-68
2022/10/02 07:45:12;;;;;;;3.67;1.55;;;;;;;;;;5022667;28;20390;-67
2022/10/02 07:47:44;;;;;;;3.20;1.50;;;;;;;;;;5021978;28;20022;-68
2022/10/02 07:50:33;;;;;;;8.65;2.00;;;;;;;;;;5019565;28;20113;-71
2022/10/02 07:53:31;;;;;;;6.38;2.00;;;;;;;;;;5021979;28;20118;-72
2022/10/02 07:55:57;;;;;;;5.90;1.63;;;;;;;;;;4959846;28;20054;-67
2022/10/02 07:58:23;;;;;;;6.85;1.92;;;;;;;;;;4961737;28;20058;-72
2022/10/02 08:01:00;;;;;;;6.88;1.80;;;;;;;;;;4959955;28;20082;-68
2022/10/02 08:03:32;;;;;;;6.20;1.90;;;;;;;;;;4971535;28;20054;-67
2022/10/02 08:05:59;;;;;;;7.00;1.75;;;;;;;;;;4971429;28;20093;-67
2022/10/02 08:08:40;;;;;;;7.15;1.70;;;;;;;;;;4971197;28;20035;-66
2022/10/02 08:11:30;;;;;;;7.43;1.63;;;;;;;;;;4971438;28;20123;-67
2022/10/02 08:14:04;;;;;;;9.52;2.25;;;;;;;;;;4971522;28;20027;-66
2022/10/02 08:16:51;;;;;;;9.50;2.17;;;;;;;;;;4971377;28;20527;-68
2022/10/02 08:19:28;;;;;;;6.97;2.00;;;;;;;;;;4971204;28;20129;-66
2022/10/02 08:22:04;;;;;;;6.63;1.85;;;;;;;;;;4954099;28;20042;-66
2022/10/02 08:24:37;;;;;;;6.53;2.17;;;;;;;;;;4951910;29;20114;-68
2022/10/02 08:27:17;;;;;;;5.22;1.55;;;;;;;;;;4951787;29;20058;-67
2022/10/02 08:29:48;;;;;;;8.93;1.98;;;;;;;;;;4950959;28;20042;-72
2022/10/02 08:32:14;;;;;;;4.95;1.42;;;;;;;;;;4999761;28;20042;-72
2022/10/02 08:34:41;;;;;;;6.35;1.58;;;;;;;;;;5012434;28;20503;-68
2022/10/02 08:37:29;;;;;;;5.60;1.45;;;;;;;;;;5012308;28;20064;-70
2022/10/02 08:40:10;;;;;;;4.18;1.45;;;;;;;;;;5012274;28;20052;-73
2022/10/02 08:42:47;;;;;;;8.70;1.45;;;;;;;;;;5012186;28;20057;-70
2022/10/02 08:45:33;;;;;;;5.45;1.75;;;;;;;;;;5012046;28;20379;-69
2022/10/02 08:48:26;;;;;;;4.80;1.85;;;;;;;;;;5012131;28;20094;-67
2022/10/02 08:51:08;;;;;;;5.45;1.27;;;;;;;;;;5012211;28;20034;-68
2022/10/02 08:54:07;;;;;;;6.60;1.65;;;;;;;;;;5012039;28;20157;-70
2022/10/02 08:57:05;;;;;;;5.60;1.52;;;;;;;;;;5010613;28;20026;-71
2022/10/02 08:59:30;;;;;;;8.27;1.90;;;;;;;;;;4970224;28;20086;-71
2022/10/02 09:02:30;;;;;;;7.72;1.50;;;;;;;;;;4970306;28;20440;-71
2022/10/02 09:05:29;;;;;;;4.83;1.30;;;;;;;;;;4970543;28;20145;-70
2022/10/02 09:08:13;;;;;;;6.05;2.42;;;;;;;;;;4970336;28;20031;-70
2022/10/02 09:11:17;;;;;;;7.32;1.48;;;;;;;;;;4970200;28;20067;-72
2022/10/02 09:14:15;;;;;;;5.50;1.30;;;;;;;;;;4970183;28;20046;-72
2022/10/02 09:16:52;;;;;;;6.30;1.38;;;;;;;;;;4970270;28;20068;-72
2022/10/02 09:19:55;;;;;;;4.32;1.75;;;;;;;;;;4970125;28;20404;-73
2022/10/02 09:22:43;;;;;;;6.35;2.15;;;;;;;;;;4954634;28;20382;-73
2022/10/02 09:25:27;;;;;;;5.30;1.60;;;;;;;;;;4951008;29;20038;-67
2022/10/02 09:28:30;;;;;;;5.90;1.45;;;;;;;;;;4950824;29;20030;-73
2022/10/02 09:31:13;;;;;;;9.60;3.50;;;;;;;;;;4950668;29;20066;-72
2022/10/02 09:34:12;;;;;;;6.72;1.60;;;;;;;;;;4950855;29;20035;-72
2022/10/02 09:37:00;;;;;;;6.03;1.35;;;;;;;;;;4982461;28;20040;-71
2022/10/02 09:39:53;;;;;;;7.95;3.03;;;;;;;;;;4991631;28;20049;-72
2022/10/02 09:43:03;;;;;;;4.47;1.40;;;;;;;;;;4991542;28;20022;-71
2022/10/02 09:45:54;;;;;;;5.15;1.70;;;;;;;;;;4991823;28;20105;-72
2022/10/02 09:48:41;;;;;;;4.65;1.83;;;;;;;;;;4991256;28;20030;-73
2022/10/02 09:51:25;;;;;;;6.63;1.67;;;;;;;;;;4991613;28;20022;-72
2022/10/02 09:54:20;;;;;;;8.82;1.40;;;;;;;;;;4991773;28;20018;-72
2022/10/02 09:56:59;;;;;;;6.15;1.40;;;;;;;;;;4991395;28;20050;-71
2022/10/02 09:59:57;;;;;;;3.78;1.45;;;;;;;;;;4991533;28;20034;-71
2022/10/02 10:02:29;;;;;;;3.75;1.30;;;;;;;;;;4991623;28;20335;-71
2022/10/02 10:05:11;;;;;;;5.32;1.95;;;;;;;;;;4991620;28;20031;-71
2022/10/02 10:08:14;;;;;;;6.35;2.00;;;;;;;;;;4991549;28;20553;-71
2022/10/02 10:10:54;;;;;;;3.70;1.08;;;;;;;;;;4991029;28;20041;-71
2022/10/02 10:14:01;;;;;;;5.95;1.27;;;;;;;;;;4991692;28;20500;-71
2022/10/02 10:17:08;;;;;;;4.38;1.30;;;;;;;;;;4989154;28;20062;-70
2022/10/02 10:20:03;;;;;;;5.18;1.30;;;;;;;;;;4988819;28;20050;-68
2022/10/02 10:23:11;;;;;;;6.30;1.75;;;;;;;;;;4988931;28;20442;-71
2022/10/02 10:26:08;;;;;;;6.88;1.63;;;;;;;;;;4988806;28;20050;-72
2022/10/02 10:29:30;;;;;;;6.30;1.48;;;;;;;;;;4989018;28;20035;-68
2022/10/02 10:32:17;;;;;;;6.43;1.50;;;;;;;;;;4985719;28;20482;-69
2022/10/02 10:34:54;;;;;;;5.07;1.33;;;;;;;;;;4988988;28;20516;-71
2022/10/02 10:40:37;;;;;;;3.65;1.58;;;;;;;;;;4988543;28;20557;-69
2022/10/02 10:43:26;;;;;;;8.13;1.33;;;;;;;;;;4988917;28;20105;-72
2022/10/02 10:46:14;;;;;;;3.83;1.20;;;;;;;;;;4988638;28;20027;-69
2022/10/02 10:49:24;;;;;;;4.60;1.30;;;;;;;;;;4988729;28;20035;-71
2022/10/02 10:52:28;;;;;;;3.90;1.23;;;;;;;;;;4894216;29;20040;-70
2022/10/02 10:55:10;;;;;;;2.88;0.98;;;;;;;;;;4915314;29;20111;-72
2022/10/02 10:58:00;;;;;;;3.85;1.15;;;;;;;;;;4915354;29;20028;-68
2022/10/02 11:00:36;;;;;;;4.13;1.17;;;;;;;;;;4915371;29;20048;-68
2022/10/02 11:03:23;;;;;;;4.65;1.35;;;;;;;;;;4915381;29;20391;-68
2022/10/02 11:06:03;;;;;;;4.60;1.10;;;;;;;;;;4915207;29;20044;-69
2022/10/02 11:08:29;;;;;;;4.32;1.45;;;;;;;;;;4915003;29;20039;-68
2022/10/02 11:11:18;;;;;;;2.63;1.05;;;;;;;;;;4915051;29;20039;-71
2022/10/02 11:14:11;;;;;;;3.72;1.08;;;;;;;;;;4915214;29;20047;-67
2022/10/02 11:16:58;;;;;;;3.13;1.23;;;;;;;;;;4914943;29;20043;-68
2022/10/02 11:19:41;;;;;;;4.40;1.17;;;;;;;;;;4914708;29;20498;-70
2022/10/02 11:22:35;;;;;;;3.22;1.02;;;;;;;;;;4928013;29;20035;-67
2022/10/02 11:25:15;;;;;;;4.35;1.10;;;;;;;;;;4943120;28;20034;-72
2022/10/02 11:28:12;;;;;;;4.13;1.30;;;;;;;;;;4994205;28;20077;-69
2022/10/02 11:31:04;;;;;;;4.18;1.10;;;;;;;;;;4994179;28;20054;-71
2022/10/02 11:33:37;;;;;;;4.57;1.10;;;;;;;;;;4993943;28;20041;-67
2022/10/02 11:36:47;;;;;;;5.32;1.10;;;;;;;;;;4993775;28;20460;-67
2022/10/02 11:39:31;;;;;;;7.70;1.50;;;;;;;;;;4972059;28;20249;-69
2022/10/02 11:42:04;;;;;;;4.35;1.20;;;;;;;;;;4971985;28;20035;-71
2022/10/02 11:44:53;;;;;;;6.07;1.20;;;;;;;;;;4972040;28;20074;-68
2022/10/02 11:48:08;;;;;;;4.43;1.00;;;;;;;;;;4972007;28;20067;-70
2022/10/02 11:50:39;;;;;;;3.38;1.35;;;;;;;;;;4968546;28;20046;-68
2022/10/02 11:53:22;;;;;;;2.17;0.93;;;;;;;;;;4971836;28;20495;-71
2022/10/02 11:55:53;;;;;;;3.00;1.10;;;;;;;;;;4971842;28;20120;-71
2022/10/02 11:58:43;;;;;;;4.63;1.77;;;;;;;;;;4970652;28;20534;-68
2022/10/02 12:01:25;;;;;;;3.22;1.42;;;;;;;;;;4969715;28;20038;-67
2022/10/02 12:04:17;;;;;;;2.95;1.50;;;;;;;;;;4970585;28;20039;-69
2022/10/02 12:07:04;;;;;;;4.20;1.20;;;;;;;;;;4971550;28;20198;-68
2022/10/02 12:09:57;;;;;;;3.97;1.30;;;;;;;;;;4971611;28;20217;-70
2022/10/02 12:12:50;;;;;;;2.88;0.98;;;;;;;;;;4971615;28;20038;-70
2022/10/02 12:15:52;;;;;;;2.03;1.00;;;;;;;;;;4898538;29;20115;-71
2022/10/02 12:18:18;;;;;;;3.05;0.75;;;;;;;;;;4914057;29;20040;-70
2022/10/02 12:27:25;;;;;;;6.32;3.25;;;;;;;;;;4895010;29;20040;-71
2022/10/02 12:30:11;;;;;;;4.53;2.10;;;;;;;;;;4892999;29;20045;-70
2022/10/02 12:32:55;;;;;;;5.43;1.45;;;;;;;;;;4894944;29;20036;-68
2022/10/02 12:35:41;;;;;;;8.45;3.85;;;;;;;;;;4894660;29;20032;-69
2022/10/02 12:38:28;;;;;;;5.25;1.75;;;;;;;;;;4894761;29;20072;-70
2022/10/02 12:41:31;;;;;;;3.85;1.25;;;;;;;;;;4894699;29;20041;-68
2022/10/02 12:44:09;;;;;;;8.30;1.92;;;;;;;;;;4892862;29;20459;-69
2022/10/02 12:47:12;;;;;;;3.75;1.40;;;;;;;;;;4894706;29;20104;-68
2022/10/02 12:49:52;;;;;;;2.65;1.10;;;;;;;;;;4894166;29;20068;-68
2022/10/02 12:52:41;;;;;;;4.35;1.20;;;;;;;;;;4939383;28;20070;-71
2022/10/02 12:55:28;;;;;;;5.43;1.20;;;;;;;;;;4976030;28;20022;-71
2022/10/02 12:58:12;;;;;;;3.40;0.90;;;;;;;;;;4999971;28;20042;-71
2022/10/02 13:00:40;;;;;;;8.55;3.78;;;;;;;;;;4995635;28;20034;-69
2022/10/02 13:03:21;;;;;;;7.35;2.42;;;;;;;;;;5004230;28;20056;-70
2022/10/02 13:06:09;;;;;;;9.13;3.63;;;;;;;;;;5020155;28;20026;-70
2022/10/02 13:08:53;;;;;;;10.40;4.40;;;;;;;;;;5023900;28;20022;-70
2022/10/02 13:11:28;;;;;;;8.38;2.85;;;;;;;;;;5012585;28;20030;-68
2022/10/02 13:14:16;;;;;;;4.53;1.45;;;;;;;;;;5027025;28;20037;-70
2022/10/02 13:16:48;;;;;;;14.30;5.57;;;;;;;;;;5031985;28;20041;-68
2022/10/02 13:19:22;;;;;;;6.20;2.33;;;;;;;;;;5032150;28;20049;-70
2022/10/02 13:21:57;;;;;;;8.02;3.08;;;;;;;;;;5009974;28;20373;-70
2022/10/02 13:24:49;;;;;;;8.45;1.75;;;;;;;;;;4992963;28;20130;-70
2022/10/02 13:27:37;;;;;;;5.97;2.30;;;;;;;;;;4990978;28;20039;-68
2022/10/02 13:30:16;;;;;;;4.20;1.38;;;;;;;;;;4990675;28;20570;-69
2022/10/02 13:33:04;;;;;;;4.45;1.23;;;;;;;;;;4990757;28;20034;-69
2022/10/02 13:35:30;;;;;;;6.75;2.00;;;;;;;;;;4990876;28;20049;-69
2022/10/02 13:38:17;;;;;;;9.40;4.70;;;;;;;;;;4990484;28;20484;-69
2022/10/02 13:41:06;;;;;;;10.48;3.35;;;;;;;;;;4995928;28;20042;-69
2022/10/02 13:43:48;;;;;;;6.10;1.40;;;;;;;;;;4990199;28;20026;-70
2022/10/02 13:46:43;;;;;;;8.00;2.70;;;;;;;;;;4988545;28;20045;-71
2022/10/02 13:49:52;;;;;;;12.25;1.85;;;;;;;;;;4989337;28;20030;-70
2022/10/02 13:52:50;;;;;;;8.43;1.42;;;;;;;;;;4987583;28;20035;-69
2022/10/02 13:55:25;;;;;;;4.43;1.20;;;;;;;;;;4989906;28;20018;-70
2022/10/02 13:58:23;;;;;;;6.43;1.60;;;;;;;;;;4988240;28;20042;-69
2022/10/02 14:01:17;;;;;;;5.50;2.70;;;;;;;;;;5010132;28;20026;-73
2022/10/02 14:03:46;;;;;;;5.82;2.05;;;;;;;;;;4997830;28;20041;-72
2022/10/02 14:06:25;;;;;;;5.13;2.00;;;;;;;;;;5012307;28;20593;-71
2022/10/02 14:09:15;;;;;;;8.00;2.13;;;;;;;;;;5012351;28;20108;-71
2022/10/02 14:11:59;;;;;;;3.22;1.40;;;;;;;;;;4992879;28;20042;-71
2022/10/02 14:14:37;;;;;;;8.18;3.67;;;;;;;;;;4992661;28;20432;-68
2022/10/02 14:17:14;;;;;;;15.07;7.22;;;;;;;;;;4992657;28;20026;-70
2022/10/02 14:19:56;;;;;;;13.27;6.05;;;;;;;;;;4992324;28;20046;-68
2022/10/02 14:22:22;;;;;;;4.85;1.30;;;;;;;;;;4992552;28;20035;-68
2022/10/02 14:25:25;;;;;;;5.55;2.10;;;;;;;;;;4992568;28;20029;-67
2022/10/02 14:27:58;;;;;;;10.95;6.05;;;;;;;;;;4992033;28;20045;-68
2022/10/02 14:30:48;;;;;;;11.85;3.30;;;;;;;;;;5006324;28;20040;-69
2022/10/02 14:33:28;;;;;;;;;;;;;;;;;;5010049;28;20038;-67
2022/10/02 14:36:00;;;;;;;9.43;3.67;;;;;;;;;;5004657;28;19964;-67
2022/10/02 14:38:41;;;;;;;6.43;3.78;;;;;;;;;;5005619;28;20026;-68
2022/10/02 14:41:45;;;;;;;7.63;4.55;;;;;;;;;;5023941;28;20071;-69
2022/10/02 14:44:27;;;;;;;7.45;4.40;;;;;;;;;;4984418;28;20038;-67
2022/10/02 14:47:05;;;;;;;5.40;1.48;;;;;;;;;;4984188;28;20057;-66
2022/10/02 14:50:13;;;;;;;3.75;1.40;;;;;;;;;;4984392;28;20035;-66
2022/10/02 14:52:58;;;;;;;9.13;3.35;;;;;;;;;;4925757;29;20036;-68
2022/10/02 14:55:47;;;;;;;7.63;1.38;;;;;;;;;;4925154;29;20095;-68
2022/10/02 14:58:45;;;;;;;3.63;0.93;;;;;;;;;;4924813;29;20398;-67
2022/10/02 15:01:22;;;;;;;8.25;2.17;;;;;;;;;;4926334;29;20273;-70
2022/10/02 15:04:09;;;;;;;4.20;2.10;;;;;;;;;;4926646;29;20050;-69
2022/10/02 15:06:42;;;;;;;5.20;1.92;;;;;;;;;;4922887;29;20051;-67
2022/10/02 15:09:23;;;;;;;11.25;4.00;;;;;;;;;;4924500;29;20148;-67
2022/10/02 15:12:00;;;;;;;9.05;3.20;;;;;;;;;;4924544;29;20083;-68
2022/10/02 15:14:41;;;;;;;6.25;1.60;;;;;;;;;;4924383;29;20035;-67
2022/10/02 15:20:13;;;;;;;6.57;1.83;;;;;;;;;;4915039;29;20612;-68
2022/10/02 15:22:48;;;;;;;6.05;1.30;;;;;;;;;;4948547;29;20038;-71
2022/10/02 15:25:23;;;;;;;4.70;1.13;;;;;;;;;;4950111;29;20043;-70
2022/10/02 15:27:49;;;;;;;9.85;1.92;;;;;;;;;;4991085;28;20031;-68
2022/10/02 15:30:22;;;;;;;5.53;1.35;;;;;;;;;;4990827;28;20043;-70
2022/10/02 15:32:57;;;;;;;5.22;1.70;;;;;;;;;;4991218;28;20037;-70
2022/10/02 15:35:34;;;;;;;8.07;1.83;;;;;;;;;;4990583;28;20113;-70
2022/10/02 15:38:25;;;;;;;5.22;1.10;;;;;;;;;;4990829;28;20089;-69
2022/10/02 15:41:11;;;;;;;7.03;1.60;;;;;;;;;;4990914;28;20388;-71
2022/10/02 15:43:55;;;;;;;7.63;1.70;;;;;;;;;;4991059;28;20030;-70
2022/10/02 15:46:36;;;;;;;9.07;1.77;;;;;;;;;;5006047;28;20344;-69
2022/10/02 15:49:22;;;;;;;3.92;1.35;;;;;;;;;;5030256;28;20032;-71
2022/10/02 15:52:06;;;;;;;2.80;1.10;;;;;;;;;;5030374;28;20030;-70
2022/10/02 15:54:40;;;;;;;6.20;1.65;;;;;;;;;;5029464;28;20028;-71
2022/10/02 15:57:36;;;;;;;7.07;1.35;;;;;;;;;;5033522;28;20017;-71
2022/10/02 16:00:12;;;;;;;5.45;1.40;;;;;;;;;;5032638;28;20021;-70
2022/10/02 16:02:40;;;;;;;8.32;2.33;;;;;;;;;;5033198;28;20025;-71
2022/10/02 16:05:30;;;;;;;10.30;1.98;;;;;;;;;;5033935;28;20441;-70
2022/10/02 16:08:09;;;;;;;11.90;1.80;;;;;;;;;;5033775;28;20029;-70
2022/10/02 16:10:58;;;;;;;7.55;2.40;;;;;;;;;;5033186;28;20153;-70
2022/10/02 16:14:02;;;;;;;6.23;2.00;;;;;;;;;;5033373;28;20025;-69
2022/10/02 16:16:38;;;;;;;5.07;2.45;;;;;;;;;;4991889;28;20042;-69
2022/10/02 16:19:37;;;;;;;9.85;4.07;;;;;;;;;;4991774;28;20066;-71
2022/10/02 16:22:38;;;;;;;7.78;3.20;;;;;;;;;;4965897;28;20108;-69